KECS

Mondell Field Airport

Newcastle, Wyoming, USA
METAR KECS 232015Z AUTO 13017G25KT 10SM CLR 14/02 A3014 RMK AO2
Observed Flight Rules
Oct-23 @ 20:15 UTC (16 minutes ago) Visual Flight Rules
Wind Visibility Clouds
130° at 17 knots
 Gusting to 25 knots
10 miles
  • Clear skies
Temperatures Readings
Current 14°C / 57°F
Dewpoint 2°C / 36°F
Humidity 44%
Altimeter 30.14" Hg
Pressure 1021 hPa
Elevation 1273
METAR KECS 232015Z AUTO 13017G25KT 10SM CLR 14/02 A3014 RMK AO2
Observed Flight Rules
Oct-23 @ 20:15 UTC
(16 minutes ago)
VFR
Wind Visibility
130° at 17 knots
 Gusting to 25 knots
10 miles
Clouds
  • Clear skies
Temperature Dewpoint
14°C / 57°F 2°C / 36°F
Humidity Altimeter Pressure
44% 30.14" Hg 1021 hPa